Time;durP1;ratioP1;P1;durP2;ratioP2;P2;SDS_P1;SDS_P2;PMS_P1;PMS_P2;Temp;Humidity;BMP_temperature;BMP_pressure;BME280_temperature;BME280_humidity;BME280_pressure;Samples;Min_cycle;Max_cycle;Signal;HPM_P1;HPM_P2
2024/02/03 00:01:45;;;;;;;10.32;5.85;;;8.30;99.90;;;;;;5039705;28;20021;-91
2024/02/03 00:04:11;;;;;;;9.77;4.65;;;8.30;99.90;;;;;;5035233;28;20049;-91
2024/02/03 00:06:37;;;;;;;8.70;5.13;;;8.30;99.90;;;;;;5044660;28;20024;-90
2024/02/03 00:09:05;;;;;;;9.02;4.43;;;8.30;99.90;;;;;;5043630;28;20029;-91
2024/02/03 00:11:31;;;;;;;11.48;4.47;;;8.30;99.90;;;;;;5035246;28;20115;-90
2024/02/03 00:13:57;;;;;;;9.68;5.55;;;8.30;99.90;;;;;;5040188;28;20053;-90
2024/02/03 00:16:22;;;;;;;9.75;5.53;;;8.30;99.90;;;;;;5028504;28;20029;-90
2024/02/03 00:18:48;;;;;;;10.18;5.00;;;8.30;99.90;;;;;;5044786;28;20025;-90
2024/02/03 00:21:13;;;;;;;10.35;5.28;;;8.30;99.90;;;;;;5040968;28;20100;-90
2024/02/03 00:23:39;;;;;;;9.18;5.03;;;8.30;99.90;;;;;;5032025;28;20021;-92
2024/02/03 00:26:05;;;;;;;9.27;4.50;;;8.30;99.90;;;;;;5044190;28;20079;-91
2024/02/03 00:28:30;;;;;;;10.82;5.97;;;8.30;99.90;;;;;;5044202;28;20052;-91
2024/02/03 00:30:56;;;;;;;9.75;4.95;;;8.30;99.90;;;;;;5047125;28;20510;-91
2024/02/03 00:33:21;;;;;;;10.63;5.55;;;8.30;99.90;;;;;;5032469;28;20088;-90
2024/02/03 00:35:47;;;;;;;10.25;5.40;;;8.30;99.90;;;;;;5032762;28;20056;-90
2024/02/03 00:38:12;;;;;;;17.65;4.93;;;8.30;99.90;;;;;;5035537;28;20111;-91
2024/02/03 00:40:38;;;;;;;9.98;5.30;;;8.20;99.90;;;;;;5033958;28;20037;-89
2024/02/03 00:43:04;;;;;;;14.45;5.43;;;8.30;99.90;;;;;;5037147;28;20025;-90
2024/02/03 00:45:29;;;;;;;10.82;4.85;;;8.20;99.90;;;;;;5030331;28;20533;-91
2024/02/03 00:47:55;;;;;;;9.68;5.60;;;8.30;99.90;;;;;;5038707;28;20018;-90
2024/02/03 00:50:21;;;;;;;8.35;4.63;;;8.20;99.90;;;;;;5024892;28;20026;-91
2024/02/03 00:52:46;;;;;;;10.40;5.00;;;8.20;99.90;;;;;;5032789;28;20036;-91
2024/02/03 00:55:12;;;;;;;8.98;4.28;;;8.20;99.90;;;;;;5037927;28;20060;-90
2024/02/03 00:57:37;;;;;;;10.00;5.22;;;8.30;99.90;;;;;;5037981;28;20033;-90
2024/02/03 01:00:05;;;;;;;9.98;5.60;;;8.30;99.90;;;;;;5036183;28;20570;-91
2024/02/03 01:02:30;;;;;;;10.45;4.70;;;8.30;99.90;;;;;;5038771;28;20031;-90
2024/02/03 01:04:56;;;;;;;10.68;5.25;;;8.30;99.90;;;;;;5045562;28;20104;-92
2024/02/03 01:07:22;;;;;;;7.93;5.10;;;8.30;99.90;;;;;;5043614;28;20588;-89
2024/02/03 01:09:48;;;;;;;10.68;5.00;;;8.30;99.90;;;;;;5039746;28;20026;-91
2024/02/03 01:12:16;;;;;;;11.85;5.68;;;8.30;99.90;;;;;;5030463;28;20474;-91
2024/02/03 01:14:41;;;;;;;8.25;5.15;;;8.30;99.90;;;;;;5045134;28;20022;-91
2024/02/03 01:17:07;;;;;;;9.10;5.47;;;8.30;99.90;;;;;;5036730;28;20029;-89
2024/02/03 01:19:32;;;;;;;10.65;4.97;;;8.20;99.90;;;;;;5036628;28;20025;-91
2024/02/03 01:21:58;;;;;;;7.88;5.30;;;8.20;99.90;;;;;;5035005;28;20025;-91
2024/02/03 01:24:24;;;;;;;6.50;4.45;;;8.30;99.90;;;;;;5041328;28;20590;-91
2024/02/03 01:26:49;;;;;;;10.55;5.18;;;8.30;99.90;;;;;;5034614;28;20439;-91
2024/02/03 01:29:16;;;;;;;8.65;5.25;;;8.30;99.90;;;;;;5038704;28;20021;-90
2024/02/03 01:31:42;;;;;;;7.68;4.38;;;8.30;99.90;;;;;;5042899;28;20033;-90
2024/02/03 01:34:07;;;;;;;9.45;5.07;;;8.30;99.90;;;;;;5039922;28;20797;-90
2024/02/03 01:36:33;;;;;;;10.00;4.50;;;8.30;99.90;;;;;;5041551;28;20562;-90
2024/02/03 01:38:59;;;;;;;13.88;4.82;;;8.30;99.90;;;;;;5050723;28;20025;-91
2024/02/03 01:41:24;;;;;;;7.00;4.25;;;8.30;99.90;;;;;;5044403;28;20021;-91
2024/02/03 01:43:50;;;;;;;9.60;5.00;;;8.30;99.90;;;;;;5046022;28;20028;-90
2024/02/03 01:46:17;;;;;;;6.85;4.43;;;8.30;99.90;;;;;;5043441;28;20045;-91
2024/02/03 01:48:44;;;;;;;9.52;5.18;;;8.30;99.90;;;;;;5041845;28;21207;-91
2024/02/03 01:51:12;;;;;;;9.32;4.68;;;8.30;99.90;;;;;;5046692;28;20044;-90
2024/02/03 01:53:37;;;;;;;9.75;4.47;;;8.30;99.90;;;;;;5041544;28;20052;-91
2024/02/03 01:56:03;;;;;;;8.88;4.68;;;8.30;99.90;;;;;;5035516;28;20030;-91
2024/02/03 01:58:29;;;;;;;6.65;4.15;;;8.30;99.90;;;;;;5051129;28;20057;-90
2024/02/03 02:00:55;;;;;;;8.95;4.70;;;8.30;99.90;;;;;;5049995;28;20022;-90
2024/02/03 02:03:21;;;;;;;8.48;4.57;;;8.30;99.90;;;;;;5036042;28;20071;-89
2024/02/03 02:05:47;;;;;;;7.72;4.13;;;8.30;99.90;;;;;;5038881;28;20025;-90
2024/02/03 02:08:13;;;;;;;6.72;3.70;;;8.30;99.90;;;;;;5046565;28;20029;-90
2024/02/03 02:10:39;;;;;;;9.55;4.15;;;8.30;99.90;;;;;;5029595;28;20025;-92
2024/02/03 02:13:04;;;;;;;7.97;3.90;;;8.30;99.90;;;;;;5050381;28;20021;-91
2024/02/03 02:15:30;;;;;;;6.80;3.97;;;8.30;99.90;;;;;;5043426;28;20040;-90
2024/02/03 02:17:58;;;;;;;10.05;3.78;;;8.30;99.90;;;;;;5041747;28;20029;-90
2024/02/03 02:20:23;;;;;;;5.65;3.25;;;8.20;99.90;;;;;;5043929;28;20400;-91
2024/02/03 02:22:49;;;;;;;7.10;3.55;;;8.20;99.90;;;;;;5040073;28;20025;-89
2024/02/03 02:25:15;;;;;;;13.82;3.88;;;8.20;99.90;;;;;;5037260;28;20033;-91
2024/02/03 02:27:40;;;;;;;6.90;3.63;;;8.20;99.90;;;;;;5051102;28;20033;-90
2024/02/03 02:30:06;;;;;;;7.00;3.28;;;8.20;99.90;;;;;;5033879;28;20552;-91
2024/02/03 02:32:32;;;;;;;5.65;2.88;;;8.20;99.90;;;;;;5044710;28;20043;-90
2024/02/03 02:34:58;;;;;;;4.68;2.95;;;8.20;99.90;;;;;;5045910;28;20726;-91
2024/02/03 02:37:24;;;;;;;5.75;2.67;;;8.20;99.90;;;;;;5037770;28;20067;-91
2024/02/03 02:39:49;;;;;;;5.25;2.67;;;8.20;99.90;;;;;;5037442;28;20029;-90
2024/02/03 02:42:15;;;;;;;3.20;2.40;;;8.20;99.90;;;;;;5033964;28;20017;-90
2024/02/03 02:44:42;;;;;;;3.70;2.30;;;8.20;99.90;;;;;;5041967;28;20021;-89
2024/02/03 02:47:07;;;;;;;7.07;2.80;;;8.20;99.90;;;;;;5037992;28;20049;-90
2024/02/03 02:49:33;;;;;;;4.75;2.60;;;8.20;99.90;;;;;;5041747;28;20029;-90
2024/02/03 02:51:59;;;;;;;4.32;2.58;;;8.20;99.90;;;;;;5034815;28;20476;-90
2024/02/03 02:54:24;;;;;;;6.22;2.58;;;8.20;99.90;;;;;;5036270;28;20395;-91
2024/02/03 02:56:50;;;;;;;4.82;2.80;;;8.20;99.90;;;;;;5038678;28;20029;-90
2024/02/03 02:59:18;;;;;;;5.20;2.60;;;8.20;99.90;;;;;;5052959;28;20110;-91
2024/02/03 03:01:43;;;;;;;4.55;2.40;;;8.20;99.90;;;;;;5043277;28;20174;-91
2024/02/03 03:04:09;;;;;;;6.47;3.13;;;8.20;99.90;;;;;;5033372;28;20049;-90
2024/02/03 03:06:34;;;;;;;7.20;3.10;;;8.20;99.90;;;;;;5042710;28;20025;-90
2024/02/03 03:09:00;;;;;;;5.47;3.13;;;8.20;99.90;;;;;;5043399;28;20096;-91
2024/02/03 03:11:26;;;;;;;4.35;2.55;;;8.20;99.90;;;;;;5037537;28;20496;-91
2024/02/03 03:13:52;;;;;;;5.65;2.88;;;8.20;99.90;;;;;;5043772;28;20068;-90
2024/02/03 03:16:17;;;;;;;3.70;2.40;;;8.20;99.90;;;;;;5041877;28;20029;-91
2024/02/03 03:18:43;;;;;;;4.60;2.92;;;8.20;99.90;;;;;;5034677;28;20025;-90
2024/02/03 03:21:09;;;;;;;4.05;2.72;;;8.20;99.90;;;;;;5035662;28;20080;-91
2024/02/03 03:23:34;;;;;;;5.18;3.38;;;8.20;99.90;;;;;;5034439;28;20028;-92
2024/02/03 03:26:00;;;;;;;4.75;2.55;;;8.20;99.90;;;;;;5047734;28;20546;-91
2024/02/03 03:28:26;;;;;;;4.40;2.33;;;8.20;99.90;;;;;;5039139;28;20017;-91
2024/02/03 03:30:52;;;;;;;5.82;2.83;;;8.20;99.90;;;;;;5024570;28;20036;-90
2024/02/03 03:33:18;;;;;;;3.53;2.22;;;8.20;99.90;;;;;;5033979;28;20037;-90
2024/02/03 03:35:43;;;;;;;4.32;2.67;;;8.20;99.90;;;;;;5049533;28;20036;-90
2024/02/03 03:38:11;;;;;;;4.88;3.00;;;8.20;99.90;;;;;;5045861;28;20037;-89
2024/02/03 03:40:37;;;;;;;4.35;2.85;;;8.20;99.90;;;;;;5033938;28;20112;-91
2024/02/03 03:43:04;;;;;;;4.35;2.55;;;8.20;99.90;;;;;;5023344;28;20080;-91
2024/02/03 03:45:30;;;;;;;3.70;2.53;;;8.20;99.90;;;;;;5037838;28;20026;-90
2024/02/03 03:47:55;;;;;;;4.22;2.90;;;8.20;99.90;;;;;;5043292;28;20025;-91
2024/02/03 03:50:21;;;;;;;5.05;2.55;;;8.20;99.90;;;;;;5043746;28;20491;-91
2024/02/03 03:52:46;;;;;;;4.78;2.90;;;8.20;99.90;;;;;;5032823;28;20557;-90
2024/02/03 03:55:12;;;;;;;4.43;2.95;;;8.20;99.90;;;;;;5040106;28;20466;-90
2024/02/03 03:57:37;;;;;;;5.10;3.22;;;8.20;99.90;;;;;;5031649;28;20121;-91
2024/02/03 04:00:09;;;;;;;5.07;2.92;;;8.20;99.90;;;;;;5034499;28;20032;-91
2024/02/03 04:02:35;;;;;;;6.68;2.63;;;8.20;99.90;;;;;;5030851;28;20049;-91
2024/02/03 04:05:00;;;;;;;5.05;3.13;;;8.20;99.90;;;;;;5030123;28;20064;-91
2024/02/03 04:07:26;;;;;;;5.53;2.42;;;8.20;99.90;;;;;;5038874;28;20087;-90
2024/02/03 04:09:51;;;;;;;6.68;2.85;;;8.20;99.90;;;;;;5031917;28;20032;-90
2024/02/03 04:12:17;;;;;;;6.57;3.25;;;8.20;99.90;;;;;;5037451;28;20033;-89
2024/02/03 04:14:43;;;;;;;6.28;2.80;;;8.20;99.90;;;;;;5032176;28;20039;-92
2024/02/03 04:17:09;;;;;;;4.60;3.00;;;8.20;99.90;;;;;;5034656;28;20060;-90
2024/02/03 04:19:35;;;;;;;4.25;2.72;;;8.20;99.90;;;;;;5046807;28;20032;-91
2024/02/03 04:22:01;;;;;;;4.90;2.85;;;8.20;99.90;;;;;;5034720;28;20017;-90
2024/02/03 04:24:26;;;;;;;4.57;2.95;;;8.20;99.90;;;;;;5039194;28;20108;-90
2024/02/03 04:26:52;;;;;;;4.22;2.85;;;8.20;99.90;;;;;;5039481;28;20482;-90
2024/02/03 04:29:19;;;;;;;5.10;3.00;;;8.20;99.90;;;;;;5045582;28;20021;-90
2024/02/03 04:31:44;;;;;;;6.43;3.60;;;8.20;99.90;;;;;;5040025;28;20107;-91
2024/02/03 04:34:10;;;;;;;4.65;2.55;;;8.20;99.90;;;;;;5030781;28;20064;-88
2024/02/03 04:36:35;;;;;;;4.25;3.08;;;8.20;99.90;;;;;;5032175;28;20049;-91
2024/02/03 04:39:01;;;;;;;7.00;3.67;;;8.20;99.90;;;;;;5042871;28;20116;-90
2024/02/03 04:41:27;;;;;;;4.85;3.25;;;8.20;99.90;;;;;;5047970;28;20021;-90
2024/02/03 04:43:52;;;;;;;6.47;3.22;;;8.20;99.90;;;;;;5033314;28;20022;-90
2024/02/03 04:46:18;;;;;;;7.65;3.72;;;8.20;99.90;;;;;;5031503;28;20018;-91
2024/02/03 04:48:44;;;;;;;4.28;2.85;;;8.20;99.90;;;;;;5041412;28;20029;-91
2024/02/03 04:51:10;;;;;;;6.63;3.45;;;8.20;99.90;;;;;;5032541;28;20021;-90
2024/02/03 04:53:36;;;;;;;8.07;3.88;;;8.20;99.90;;;;;;5047122;28;20479;-90
2024/02/03 04:56:01;;;;;;;5.75;3.08;;;8.20;99.90;;;;;;5035420;28;20025;-91
2024/02/03 04:58:27;;;;;;;6.05;3.17;;;8.20;99.90;;;;;;5038394;28;20079;-90
2024/02/03 05:00:53;;;;;;;5.40;3.38;;;8.20;99.90;;;;;;5050402;28;20021;-91
2024/02/03 05:03:18;;;;;;;9.50;3.13;;;8.20;99.90;;;;;;5045454;28;20090;-90
2024/02/03 05:05:45;;;;;;;6.78;4.05;;;8.20;99.90;;;;;;5031634;28;20026;-90
2024/02/03 05:08:10;;;;;;;5.47;3.65;;;8.20;99.90;;;;;;5033615;28;20021;-91
2024/02/03 05:10:36;;;;;;;8.90;3.80;;;8.20;99.90;;;;;;5042714;28;20025;-90
2024/02/03 05:13:01;;;;;;;6.20;3.70;;;8.20;99.90;;;;;;5032118;28;20056;-90
2024/02/03 05:15:27;;;;;;;7.20;3.10;;;8.20;99.90;;;;;;5036459;28;20044;-90
2024/02/03 05:17:52;;;;;;;5.25;3.42;;;8.20;99.90;;;;;;5026417;28;20028;-91
2024/02/03 05:20:18;;;;;;;10.73;4.05;;;8.20;99.90;;;;;;5033169;28;20021;-91
2024/02/03 05:22:43;;;;;;;7.80;3.45;;;8.20;99.90;;;;;;5043067;28;20029;-91
2024/02/03 05:25:10;;;;;;;5.82;3.72;;;8.10;99.90;;;;;;5044474;28;20018;-91
2024/02/03 05:27:36;;;;;;;8.50;4.18;;;8.10;99.90;;;;;;5032749;28;20030;-91
2024/02/03 05:30:02;;;;;;;5.72;3.92;;;8.10;99.90;;;;;;5037182;28;20025;-90
2024/02/03 05:32:29;;;;;;;6.20;4.20;;;8.20;99.90;;;;;;5047301;28;20031;-90
2024/02/03 05:34:55;;;;;;;8.85;4.63;;;8.10;99.90;;;;;;5043259;28;20341;-90
2024/02/03 05:37:20;;;;;;;9.30;4.32;;;8.10;99.90;;;;;;5039215;28;20494;-90
2024/02/03 05:39:46;;;;;;;8.07;3.85;;;8.20;99.90;;;;;;5035771;28;20025;-92
2024/02/03 05:42:11;;;;;;;6.63;4.13;;;8.20;99.90;;;;;;5046196;28;20036;-91
2024/02/03 05:44:37;;;;;;;7.32;4.35;;;8.20;99.90;;;;;;5040506;28;20029;-91
2024/02/03 05:47:03;;;;;;;7.22;4.22;;;8.20;99.90;;;;;;5046322;28;20036;-91
2024/02/03 05:49:28;;;;;;;11.73;4.20;;;8.10;99.90;;;;;;5037513;28;20030;-90
2024/02/03 05:51:54;;;;;;;9.65;4.78;;;8.20;99.90;;;;;;5041691;28;20491;-91
2024/02/03 05:54:19;;;;;;;6.82;4.38;;;8.20;99.90;;;;;;5039157;28;20021;-90
2024/02/03 05:56:45;;;;;;;8.38;4.93;;;8.10;99.90;;;;;;5037538;28;20623;-91
2024/02/03 05:59:11;;;;;;;12.38;5.00;;;8.10;99.90;;;;;;5050662;28;20520;-91
2024/02/03 06:01:36;;;;;;;10.63;5.28;;;8.20;99.90;;;;;;5032491;28;20026;-91
2024/02/03 06:04:04;;;;;;;9.75;4.93;;;8.10;99.90;;;;;;5034745;28;20446;-90
2024/02/03 06:06:31;;;;;;;8.98;4.97;;;8.20;99.90;;;;;;5035986;28;20025;-90
2024/02/03 06:08:57;;;;;;;7.80;4.50;;;8.10;99.90;;;;;;5033413;28;20021;-91
2024/02/03 06:11:22;;;;;;;8.75;4.47;;;8.10;99.90;;;;;;5040808;28;20028;-91
2024/02/03 06:13:48;;;;;;;10.20;5.78;;;8.10;99.90;;;;;;5033779;28;20021;-90
2024/02/03 06:16:13;;;;;;;10.48;5.07;;;8.10;99.90;;;;;;5038608;28;20445;-90
2024/02/03 06:18:39;;;;;;;7.78;4.30;;;8.10;99.90;;;;;;5041851;28;20024;-90
2024/02/03 06:21:04;;;;;;;9.00;4.40;;;8.20;99.90;;;;;;5042079;28;20017;-91
2024/02/03 06:23:30;;;;;;;9.77;5.25;;;8.20;99.90;;;;;;5042868;28;20021;-90
2024/02/03 06:25:56;;;;;;;9.55;5.15;;;8.10;99.90;;;;;;5039942;28;20100;-88
2024/02/03 06:28:21;;;;;;;9.85;5.30;;;8.20;99.90;;;;;;5033197;28;20025;-90
2024/02/03 06:30:47;;;;;;;9.13;5.00;;;8.10;99.90;;;;;;5042004;28;20107;-90
2024/02/03 06:33:12;;;;;;;9.77;4.97;;;8.10;99.90;;;;;;5033575;28;20037;-90
2024/02/03 06:35:38;;;;;;;7.03;4.28;;;8.10;99.90;;;;;;5039979;28;20021;-91
2024/02/03 06:38:04;;;;;;;8.80;5.18;;;8.10;99.90;;;;;;5041593;28;20451;-90
2024/02/03 06:40:29;;;;;;;7.75;4.00;;;8.10;99.90;;;;;;5037275;28;20443;-90
2024/02/03 06:42:55;;;;;;;8.68;4.57;;;8.10;99.90;;;;;;5041737;28;20017;-90
2024/02/03 06:45:21;;;;;;;7.90;4.63;;;8.10;99.90;;;;;;5033464;28;20029;-87
2024/02/03 06:47:46;;;;;;;9.65;4.55;;;8.10;99.90;;;;;;5036866;28;20503;-89
2024/02/03 06:50:12;;;;;;;7.68;4.60;;;8.10;99.90;;;;;;5032445;28;20088;-90
2024/02/03 06:52:38;;;;;;;13.20;5.63;;;8.10;99.90;;;;;;5030396;28;20582;-90
2024/02/03 06:55:04;;;;;;;10.10;4.50;;;8.10;99.90;;;;;;5032181;28;20032;-89
2024/02/03 06:57:30;;;;;;;9.13;4.93;;;8.10;99.90;;;;;;5042821;28;20017;-89
2024/02/03 06:59:55;;;;;;;7.60;4.70;;;8.10;99.90;;;;;;5030052;28;20088;-91
2024/02/03 07:02:21;;;;;;;9.60;4.78;;;8.10;99.90;;;;;;5031400;28;20018;-89
2024/02/03 07:04:46;;;;;;;9.27;4.80;;;8.10;99.90;;;;;;5042596;28;20020;-90
2024/02/03 07:07:13;;;;;;;7.00;4.40;;;8.10;99.90;;;;;;5033349;28;20160;-90
2024/02/03 07:09:39;;;;;;;8.70;5.07;;;8.10;99.90;;;;;;5036683;28;20025;-89
2024/02/03 07:12:04;;;;;;;6.90;3.83;;;8.10;99.90;;;;;;5036522;28;20040;-89
2024/02/03 07:14:30;;;;;;;6.25;3.88;;;8.10;99.90;;;;;;5039179;28;20022;-91
2024/02/03 07:16:56;;;;;;;7.80;3.95;;;8.10;99.90;;;;;;5037604;28;20082;-91
2024/02/03 07:19:21;;;;;;;7.63;3.40;;;8.10;99.90;;;;;;5028328;28;20033;-91
2024/02/03 07:21:47;;;;;;;7.07;4.47;;;8.10;99.90;;;;;;5022334;28;20029;-92
2024/02/03 07:24:12;;;;;;;6.93;4.13;;;8.10;99.90;;;;;;5041843;28;20553;-90
2024/02/03 07:26:38;;;;;;;6.65;3.72;;;8.10;99.90;;;;;;5027919;28;20019;-90
2024/02/03 07:29:03;;;;;;;5.43;3.65;;;8.10;99.90;;;;;;5037250;28;20032;-89
2024/02/03 07:31:30;;;;;;;10.05;3.80;;;8.10;99.90;;;;;;5041884;28;20032;-90
2024/02/03 07:33:58;;;;;;;6.88;3.90;;;8.10;99.90;;;;;;5049198;28;20112;-95
2024/02/03 07:36:25;;;;;;;6.15;4.05;;;8.10;99.90;;;;;;5021628;28;20029;-89
2024/02/03 07:38:51;;;;;;;7.95;4.07;;;8.10;99.90;;;;;;5027267;28;20487;-91
2024/02/03 07:41:17;;;;;;;7.60;3.88;;;8.10;99.90;;;;;;5032333;28;20096;-90
2024/02/03 07:43:43;;;;;;;7.57;3.50;;;8.20;99.90;;;;;;5032222;28;20125;-90
2024/02/03 07:46:10;;;;;;;7.55;3.88;;;8.10;99.90;;;;;;5036910;28;20430;-91
2024/02/03 07:48:36;;;;;;;8.02;3.95;;;8.20;99.90;;;;;;5033995;28;20017;-88
2024/02/03 07:51:01;;;;;;;6.25;3.67;;;8.20;99.90;;;;;;5026485;28;20109;-90
2024/02/03 07:53:27;;;;;;;8.63;4.15;;;8.20;99.90;;;;;;5036258;28;20121;-90
2024/02/03 07:55:52;;;;;;;6.25;3.55;;;8.30;99.90;;;;;;5030245;28;20025;-90
2024/02/03 07:58:18;;;;;;;9.15;3.53;;;8.30;99.90;;;;;;5025774;28;20449;-88
2024/02/03 08:00:44;;;;;;;5.53;3.58;;;8.30;99.90;;;;;;5028559;28;20097;-88
2024/02/03 08:03:10;;;;;;;9.32;4.03;;;8.30;99.90;;;;;;5030280;28;20116;-90
2024/02/03 08:05:36;;;;;;;12.30;4.15;;;8.30;99.90;;;;;;5034751;28;20058;-92
2024/02/03 08:08:02;;;;;;;5.85;3.63;;;8.30;99.90;;;;;;5029404;28;20026;-90
2024/02/03 08:10:28;;;;;;;5.25;3.63;;;8.30;99.90;;;;;;5027891;28;20116;-88
2024/02/03 08:12:54;;;;;;;6.05;3.85;;;8.40;99.90;;;;;;5024099;28;20036;-87
2024/02/03 08:15:20;;;;;;;6.25;3.47;;;8.40;99.90;;;;;;5030650;28;20037;-87
2024/02/03 08:17:45;;;;;;;6.35;3.28;;;8.40;99.90;;;;;;5025568;28;20124;-85
2024/02/03 08:20:12;;;;;;;8.60;3.80;;;8.40;99.90;;;;;;5027398;28;20036;-86
2024/02/03 08:22:40;;;;;;;5.97;3.22;;;8.50;99.90;;;;;;5023889;28;20021;-85
2024/02/03 08:25:06;;;;;;;6.38;3.65;;;8.50;99.90;;;;;;5027828;28;20116;-86
2024/02/03 08:27:32;;;;;;;4.65;2.80;;;8.50;99.90;;;;;;5022382;28;20687;-86
2024/02/03 08:29:58;;;;;;;6.15;3.70;;;8.50;99.90;;;;;;5025486;28;20036;-87
2024/02/03 08:32:26;;;;;;;7.30;3.35;;;8.60;99.90;;;;;;5022962;28;20034;-86
2024/02/03 08:34:52;;;;;;;7.05;3.50;;;8.60;99.90;;;;;;5032610;28;20028;-85
2024/02/03 08:37:18;;;;;;;5.47;3.17;;;8.70;99.90;;;;;;5018346;28;20048;-86
2024/02/03 08:39:43;;;;;;;5.30;3.03;;;8.80;99.90;;;;;;5030055;28;20025;-88
2024/02/03 08:42:09;;;;;;;5.32;3.50;;;8.80;99.90;;;;;;5029789;28;20396;-86
2024/02/03 08:44:34;;;;;;;5.80;2.83;;;8.90;99.90;;;;;;5021704;28;20044;-86
2024/02/03 08:47:00;;;;;;;6.95;3.03;;;9.00;99.90;;;;;;5032745;28;20497;-86
2024/02/03 08:49:27;;;;;;;8.02;3.25;;;9.10;99.90;;;;;;5029020;28;20022;-85
2024/02/03 08:51:53;;;;;;;6.60;4.00;;;9.20;99.90;;;;;;5032089;28;20057;-86
2024/02/03 08:54:18;;;;;;;9.02;3.13;;;9.30;99.90;;;;;;5026967;28;20111;-85
2024/02/03 08:56:44;;;;;;;4.78;2.90;;;9.40;99.90;;;;;;5032727;28;20021;-86
2024/02/03 08:59:09;;;;;;;6.28;3.28;;;9.50;99.90;;;;;;5027784;28;20022;-87
2024/02/03 09:01:35;;;;;;;5.20;3.17;;;9.70;99.90;;;;;;5032589;28;20025;-87
2024/02/03 09:04:01;;;;;;;6.75;3.90;;;9.70;99.90;;;;;;5031932;28;20038;-88
2024/02/03 09:06:26;;;;;;;6.55;3.58;;;9.70;99.90;;;;;;5029450;28;20124;-86
2024/02/03 09:08:52;;;;;;;4.85;3.10;;;9.80;99.90;;;;;;5036621;28;20021;-85
2024/02/03 09:11:18;;;;;;;8.50;3.92;;;9.90;99.90;;;;;;5020717;28;20032;-85
2024/02/03 09:13:43;;;;;;;11.50;3.65;;;10.00;99.90;;;;;;5021587;28;20401;-86
2024/02/03 09:16:09;;;;;;;8.68;4.22;;;10.10;99.90;;;;;;5021951;28;20022;-85
2024/02/03 09:18:34;;;;;;;9.38;4.75;;;10.10;99.90;;;;;;5032747;28;20034;-86
2024/02/03 09:21:00;;;;;;;7.97;4.53;;;10.20;99.90;;;;;;5022693;28;20026;-85
2024/02/03 09:23:25;;;;;;;7.53;4.20;;;10.20;99.90;;;;;;5028145;28;20022;-86
2024/02/03 09:25:51;;;;;;;7.82;4.57;;;10.30;99.90;;;;;;5026412;28;20073;-85
2024/02/03 09:28:17;;;;;;;8.57;4.80;;;10.40;99.90;;;;;;5032723;28;20048;-86
2024/02/03 09:30:43;;;;;;;9.02;5.15;;;10.40;99.90;;;;;;5026209;28;20061;-85
2024/02/03 09:33:08;;;;;;;10.05;5.32;;;10.40;99.90;;;;;;5026166;28;20569;-85
2024/02/03 09:35:34;;;;;;;9.95;4.97;;;10.50;99.90;;;;;;5026797;28;20041;-86
2024/02/03 09:37:59;;;;;;;10.32;5.25;;;10.60;99.90;;;;;;5027187;28;20036;-86
2024/02/03 09:40:25;;;;;;;8.10;4.88;;;10.60;99.90;;;;;;5028630;28;20364;-85
2024/02/03 09:42:52;;;;;;;10.57;6.10;;;10.80;99.90;;;;;;5026693;28;21073;-86
2024/02/03 09:45:20;;;;;;;9.95;6.00;;;10.80;99.90;;;;;;5035902;28;20026;-85
2024/02/03 09:47:47;;;;;;;11.43;6.10;;;10.90;99.90;;;;;;5028534;28;20030;-86
2024/02/03 09:50:12;;;;;;;9.98;5.82;;;10.90;99.90;;;;;;5031319;28;20021;-86
2024/02/03 09:52:38;;;;;;;10.18;5.38;;;11.00;99.90;;;;;;5027082;28;20061;-86
2024/02/03 09:55:05;;;;;;;10.38;6.35;;;11.10;99.90;;;;;;5021894;28;20502;-86
2024/02/03 09:57:32;;;;;;;9.63;5.50;;;11.10;99.90;;;;;;5034483;28;20044;-86
2024/02/03 09:59:59;;;;;;;10.65;5.65;;;11.10;99.90;;;;;;5030757;28;20439;-87
2024/02/03 10:02:24;;;;;;;10.32;5.82;;;11.10;99.90;;;;;;5032586;28;20066;-86
2024/02/03 10:04:50;;;;;;;11.07;6.45;;;11.20;99.90;;;;;;5030030;28;20452;-86
2024/02/03 10:07:19;;;;;;;9.90;5.45;;;11.10;99.90;;;;;;5032938;28;20499;-87
2024/02/03 10:09:48;;;;;;;11.93;5.35;;;11.10;99.90;;;;;;5028882;28;20029;-85
2024/02/03 10:12:22;;;;;;;9.15;5.65;;;11.10;99.90;;;;;;5031844;28;20021;-87
2024/02/03 10:15:07;;;;;;;12.45;6.35;;;11.20;99.90;;;;;;5023466;28;20438;-87
2024/02/03 10:17:32;;;;;;;12.05;5.80;;;11.20;99.90;;;;;;5023874;28;20155;-86
2024/02/03 10:19:58;;;;;;;10.27;5.53;;;11.20;99.90;;;;;;5026250;28;20125;-87
2024/02/03 10:22:26;;;;;;;10.57;5.18;;;11.20;99.90;;;;;;5036388;28;20032;-86
2024/02/03 10:24:51;;;;;;;6.97;4.80;;;11.30;99.90;;;;;;5036812;28;20100;-85
2024/02/03 10:27:23;;;;;;;10.95;5.53;;;11.30;99.90;;;;;;5028827;28;20114;-86
2024/02/03 10:29:55;;;;;;;11.20;5.10;;;11.30;99.90;;;;;;5029634;28;20051;-86
2024/02/03 10:32:22;;;;;;;10.80;5.35;;;11.40;99.90;;;;;;5027278;28;20397;-86
2024/02/03 10:34:50;;;;;;;9.65;4.88;;;11.40;99.90;;;;;;5028557;28;20025;-86
2024/02/03 10:37:16;;;;;;;10.85;4.82;;;11.50;99.90;;;;;;5026729;28;20021;-87
2024/02/03 10:39:44;;;;;;;8.77;4.75;;;11.50;99.90;;;;;;5017363;28;20048;-87
2024/02/03 10:42:16;;;;;;;8.73;5.32;;;11.60;99.90;;;;;;5027837;28;20495;-86
2024/02/03 10:44:44;;;;;;;8.38;5.10;;;11.60;99.90;;;;;;5036932;28;20030;-88
2024/02/03 10:47:09;;;;;;;8.68;4.85;;;11.60;99.90;;;;;;5023347;28;20137;-87
2024/02/03 10:49:38;;;;;;;10.05;5.47;;;11.50;99.90;;;;;;5033553;28;21275;-87
2024/02/03 10:52:06;;;;;;;11.05;5.30;;;11.50;99.90;;;;;;5037464;28;20029;-86
2024/02/03 10:54:34;;;;;;;7.60;4.72;;;11.60;99.90;;;;;;5031985;28;20116;-86
2024/02/03 10:57:03;;;;;;;8.98;4.32;;;11.60;99.90;;;;;;5025846;28;20036;-87
2024/02/03 10:59:29;;;;;;;9.35;4.93;;;11.60;99.90;;;;;;5025995;28;20032;-88
2024/02/03 11:01:54;;;;;;;8.35;5.00;;;11.60;99.90;;;;;;5031372;28;20025;-86
2024/02/03 11:04:20;;;;;;;7.25;3.95;;;11.70;99.90;;;;;;5021036;28;20519;-86
2024/02/03 11:06:49;;;;;;;7.22;4.65;;;11.70;99.90;;;;;;5028157;28;20021;-87
2024/02/03 11:09:20;;;;;;;8.43;3.90;;;11.70;99.90;;;;;;5032755;28;20167;-86
2024/02/03 11:11:52;;;;;;;8.02;4.70;;;11.80;99.90;;;;;;5049470;28;20036;-88
2024/02/03 11:14:21;;;;;;;6.75;4.03;;;11.90;99.90;;;;;;5032062;28;20059;-86
2024/02/03 11:17:04;;;;;;;7.35;4.30;;;11.90;99.90;;;;;;5034782;28;20570;-88
2024/02/03 11:19:35;;;;;;;7.90;4.20;;;11.90;99.90;;;;;;5031164;28;20526;-88
2024/02/03 11:22:03;;;;;;;6.10;3.53;;;12.00;99.90;;;;;;5037465;28;20124;-88
2024/02/03 11:24:29;;;;;;;6.00;4.18;;;11.90;99.90;;;;;;5030824;28;20028;-89
2024/02/03 11:26:56;;;;;;;9.85;3.70;;;12.00;99.90;;;;;;5029070;28;20018;-89
2024/02/03 11:29:22;;;;;;;5.13;3.75;;;12.00;99.90;;;;;;5033178;28;20041;-89
2024/02/03 11:31:47;;;;;;;5.72;3.42;;;12.10;99.90;;;;;;5035793;28;20022;-87
2024/02/03 11:34:22;;;;;;;6.25;3.70;;;12.00;99.90;;;;;;5025132;28;20037;-87
2024/02/03 11:36:48;;;;;;;6.35;4.20;;;12.00;99.90;;;;;;5030082;28;20037;-87
2024/02/03 11:39:14;;;;;;;6.47;3.85;;;12.00;99.90;;;;;;5037413;28;20036;-88
2024/02/03 11:41:39;;;;;;;6.90;3.88;;;12.10;99.90;;;;;;5033098;28;20705;-87
2024/02/03 11:44:05;;;;;;;7.40;4.25;;;12.00;99.90;;;;;;5037143;28;20022;-88
2024/02/03 11:46:31;;;;;;;6.53;4.00;;;12.00;99.90;;;;;;5032506;28;20029;-87
2024/02/03 11:48:56;;;;;;;7.00;4.43;;;12.10;99.90;;;;;;5030641;28;20124;-88
2024/02/03 11:51:22;;;;;;;7.60;4.15;;;12.10;99.90;;;;;;5029165;28;20028;-86
2024/02/03 11:53:47;;;;;;;7.28;5.13;;;12.00;99.90;;;;;;5033316;28;20035;-86
2024/02/03 11:56:13;;;;;;;7.50;4.53;;;12.00;99.90;;;;;;5033737;28;20030;-86
2024/02/03 11:58:42;;;;;;;9.85;4.85;;;12.00;99.90;;;;;;5031709;28;20556;-86
2024/02/03 12:01:08;;;;;;;7.90;4.40;;;12.00;99.90;;;;;;5031543;28;20079;-87
2024/02/03 12:03:36;;;;;;;12.25;4.45;;;11.90;99.90;;;;;;5037025;28;20026;-88
2024/02/03 12:06:04;;;;;;;8.65;5.00;;;11.80;99.90;;;;;;5032497;28;20029;-88
2024/02/03 12:08:31;;;;;;;7.22;4.28;;;11.80;99.90;;;;;;5032440;28;20029;-86
2024/02/03 12:10:57;;;;;;;7.63;4.47;;;11.60;99.90;;;;;;5034928;28;20029;-89
2024/02/03 12:13:23;;;;;;;7.65;4.10;;;11.50;99.90;;;;;;5037667;28;20022;-88
2024/02/03 12:15:50;;;;;;;10.77;4.53;;;11.40;99.90;;;;;;5037536;28;20483;-88
2024/02/03 12:18:20;;;;;;;6.10;3.95;;;11.40;99.90;;;;;;5044067;28;20021;-88
2024/02/03 12:20:46;;;;;;;7.35;3.75;;;11.30;99.90;;;;;;5035691;28;20026;-89
2024/02/03 12:23:11;;;;;;;4.88;2.75;;;11.20;99.90;;;;;;5036709;28;20037;-86
2024/02/03 12:25:37;;;;;;;4.95;3.33;;;11.10;99.90;;;;;;5037263;28;20021;-87
2024/02/03 12:28:04;;;;;;;5.75;3.05;;;11.10;99.90;;;;;;5029565;28;20037;-87
2024/02/03 12:30:35;;;;;;;8.20;4.38;;;10.90;99.90;;;;;;5030589;28;20103;-87
2024/02/03 12:33:02;;;;;;;5.45;3.05;;;10.90;99.90;;;;;;5033872;28;20034;-87
2024/02/03 12:35:27;;;;;;;3.60;2.85;;;10.80;99.90;;;;;;5037057;28;20109;-90
2024/02/03 12:37:53;;;;;;;5.57;2.95;;;10.80;99.90;;;;;;5041171;28;20129;-88
2024/02/03 12:40:19;;;;;;;6.47;3.65;;;10.70;99.90;;;;;;5032099;28;20072;-90
2024/02/03 12:42:45;;;;;;;5.18;3.15;;;10.70;99.90;;;;;;5039255;28;20033;-90
2024/02/03 12:45:10;;;;;;;3.95;2.33;;;10.60;99.90;;;;;;5032552;28;20025;-88
2024/02/03 12:47:36;;;;;;;4.93;2.42;;;10.60;99.90;;;;;;5039038;28;20021;-87